createdAt,value
2024-01-11T07:47:00.110Z,32.56
2024-01-11T07:47:09.043Z,32.42
2024-01-11T07:47:20.411Z,32.25
2024-01-11T07:47:32.075Z,32.12
2024-01-11T07:47:43.494Z,32.08
2024-01-11T07:47:55.084Z,32.06
2024-01-11T07:48:06.703Z,32.06
2024-01-11T07:48:18.583Z,32.01
2024-01-11T07:48:30.021Z,32.03
2024-01-11T07:48:41.637Z,32.02
2024-01-11T07:48:53.391Z,31.98
2024-01-11T07:49:05.140Z,31.97
2024-01-11T07:49:16.497Z,31.95
2024-01-11T07:49:28.076Z,31.95
2024-01-11T07:49:39.407Z,31.90
2024-01-11T07:49:51.005Z,31.90
2024-01-11T07:50:02.288Z,31.91
2024-01-11T07:50:14.092Z,31.90
2024-01-11T07:50:25.515Z,31.90
2024-01-11T07:50:37.168Z,31.90
2024-01-11T07:50:48.583Z,31.88
2024-01-11T07:51:00.184Z,31.88
2024-01-11T07:51:11.487Z,31.89
2024-01-11T07:51:23.041Z,31.89
2024-01-11T07:51:34.327Z,31.86
2024-01-11T07:51:45.868Z,31.84
2024-01-11T07:51:57.153Z,31.84
2024-01-11T07:52:08.751Z,31.88
2024-01-11T07:52:21.658Z,31.86
2024-01-11T07:52:30.970Z,31.90
2024-01-11T07:52:42.794Z,31.87
2024-01-11T07:52:54.119Z,31.87
2024-01-11T07:53:05.686Z,31.87
2024-01-11T07:53:16.996Z,31.88
2024-01-11T07:53:28.733Z,31.86
2024-01-11T07:53:40.085Z,31.87
2024-01-11T07:53:51.660Z,31.86
2024-01-11T07:54:02.902Z,31.87
2024-01-11T07:54:14.449Z,31.85
2024-01-11T07:54:25.739Z,31.85
2024-01-11T07:54:37.317Z,31.87
2024-01-11T07:54:48.571Z,31.88
2024-01-11T07:55:00.180Z,31.89
2024-01-11T07:55:11.445Z,31.87
2024-01-11T07:55:23.012Z,31.85
2024-01-11T07:55:34.323Z,31.89
2024-01-11T07:55:45.843Z,31.89
2024-01-11T07:55:57.129Z,31.89
2024-01-11T07:56:08.716Z,31.87
2024-01-11T07:56:20.149Z,31.88
2024-01-11T07:56:31.789Z,31.90
2024-01-11T07:56:43.120Z,31.90
2024-01-11T07:56:54.626Z,31.90
2024-01-11T07:57:05.921Z,31.91
2024-01-11T07:57:17.464Z,31.92
2024-01-11T07:57:28.731Z,31.93
2024-01-11T07:57:40.292Z,31.92
2024-01-11T07:57:51.563Z,31.91
2024-01-11T07:58:03.067Z,31.90
2024-01-11T07:58:14.367Z,31.93
2024-01-11T07:58:25.868Z,31.91
2024-01-11T07:58:37.141Z,31.93
2024-01-11T07:58:50.053Z,31.92
2024-01-11T07:58:59.545Z,31.92
